Darstellungsparameter: Aktuell verwendete Einstellungen:
Skalierung der Graphiken ... ?
xyx+y,   Skalierungsfaktor:      Skalierung: Modus: x, Faktor: 1
Darstellungszeitraum ... ?
Vom - - bis: - -   Zeitraum: 24.09.2009 - 28.09.2009
Min/Max/Avg-Anzeige ... ?
Zeige MMA aktuell
Zeige MMA Monat
Zeige MMA alles
Zeige --A aktuell
Zeige --A Monat
Zeige --A alles
Keine MMA-Anzeige
MMA:
Average (ber die Originaldaten)
MMA-Basis: 24.09.2009 - 28.09.2009
Quicknavigation für Darstellung... ?
Tage:      1T, 2T, 3T, 5T -1T -2T -3T -5T +1T +2T +3T +5T
Wochen: 1W, 2W, 3W -1W -2W -3W +1W +2W +3W
Monate: 1M, 3M, 6M -1M -3M -6M +1M +3M +6M
Jahre:    1J, 3J, 5J, 10J -1J -3J -5J -10J +1J +3J +5J +10J
Nutze für die Darstellung ... ?
Originaldaten oder Mittelwerte auf ...
Stundenbasis Tagesbasis Wochenbasis
Monatsbasis Jahresbasis      Datenbasis: Original-Daten
Darstellen als:
Statistik (Auto) Statistik J:M      Darstellung:
Zur Graphik,    zurück zur Übersicht aller Sensoren.
 
Tabellarische Datenbersicht: ?
 
Sensor: Nr:Datum:Temp:Abs-Feuchte:Windchill:Wind:
Aussen-T/F 1 24-09-2009 00:06:02 17.6 C 10.5 g/m*3 17.6 C 0 km/h
2 24-09-2009 00:18:02 17.6 C 10.5 g/m*3 17.6 C 0 km/h
3 24-09-2009 00:30:02 17.5 C 10.44 g/m*3 17.5 C 0 km/h
4 24-09-2009 00:42:02 17.2 C 10.4 g/m*3 17.2 C 0 km/h
5 24-09-2009 00:54:01 16.9 C 10.5 g/m*3 16.9 C 0 km/h
6 24-09-2009 01:06:02 16.7 C 10.37 g/m*3 16.7 C 0 km/h
7 24-09-2009 01:18:01 16.8 C 10.58 g/m*3 16.8 C 0 km/h
8 24-09-2009 01:30:01 16.8 C 10.58 g/m*3 16.8 C 0 km/h
9 24-09-2009 01:42:01 16.8 C 10.58 g/m*3 16.8 C 0 km/h
10 24-09-2009 01:54:01 16.6 C 10.59 g/m*3 16.6 C 0 km/h
11 24-09-2009 02:06:02 16.6 C 10.59 g/m*3 16.6 C 0 km/h
12 24-09-2009 02:18:01 16.6 C 10.59 g/m*3 16.6 C 0 km/h
13 24-09-2009 02:30:01 16.6 C 10.59 g/m*3 16.6 C 0 km/h
14 24-09-2009 02:42:02 16.5 C 10.67 g/m*3 16.5 C 0 km/h
15 24-09-2009 02:55:03 16.5 C 10.67 g/m*3 16.5 C 0 km/h
16 24-09-2009 03:07:03 16.6 C 10.59 g/m*3 16.6 C 0 km/h
17 24-09-2009 03:19:03 16.6 C 10.59 g/m*3 16.6 C 0 km/h
18 24-09-2009 03:31:01 16.3 C 10.54 g/m*3 16.3 C 0 km/h
19 24-09-2009 03:43:01 16.1 C 10.55 g/m*3 16.1 C 0 km/h
20 24-09-2009 03:55:01 16.2 C 10.62 g/m*3 16.2 C 0 km/h
21 24-09-2009 04:07:02 16.3 C 10.68 g/m*3 16.3 C 0 km/h
22 24-09-2009 04:19:01 16.4 C 10.75 g/m*3 16.4 C 0 km/h
23 24-09-2009 04:31:02 16.4 C 10.75 g/m*3 16.4 C 0 km/h
24 24-09-2009 04:43:03 16.4 C 10.61 g/m*3 16.4 C 0 km/h
25 24-09-2009 04:55:02 16.4 C 10.61 g/m*3 16.4 C 0 km/h
Sensor: Nr:Datum:Temp:Abs-Feuchte:Windchill:Wind:
Aussen-T/F 26 24-09-2009 05:07:02 16.4 C 10.61 g/m*3 16.4 C 0 km/h
27 24-09-2009 05:19:01 16.2 C 10.62 g/m*3 16.2 C 0 km/h
28 24-09-2009 05:31:02 16.2 C 10.62 g/m*3 16.2 C 0 km/h
29 24-09-2009 05:43:02 16.2 C 10.76 g/m*3 16.2 C 0 km/h
30 24-09-2009 05:55:02 16.3 C 10.82 g/m*3 16.3 C 0 km/h
31 24-09-2009 06:07:02 16.3 C 10.68 g/m*3 16.3 C 0 km/h
32 24-09-2009 06:19:01 16.2 C 10.62 g/m*3 16.2 C 0 km/h
33 24-09-2009 06:31:02 16.2 C 10.62 g/m*3 16.2 C 0 km/h
34 24-09-2009 06:43:02 16 C 10.63 g/m*3 16 C 0 km/h
35 24-09-2009 06:55:02 16 C 10.63 g/m*3 16 C 0 km/h
36 24-09-2009 07:07:02 15.9 C 10.7 g/m*3 15.9 C 0 km/h
37 24-09-2009 07:19:01 15.9 C 10.7 g/m*3 15.9 C 0 km/h
38 24-09-2009 07:31:02 16.1 C 10.69 g/m*3 16.1 C 0 km/h
39 24-09-2009 07:43:02 16.2 C 10.76 g/m*3 16.2 C 0 km/h
40 24-09-2009 07:55:02 16.2 C 10.76 g/m*3 16.2 C 0 km/h
41 24-09-2009 08:07:02 16.2 C 10.62 g/m*3 16.2 C 0 km/h
42 24-09-2009 08:19:02 16.1 C 10.55 g/m*3 16.1 C 0 km/h
43 24-09-2009 08:31:02 16.2 C 10.62 g/m*3 16.2 C 0 km/h
44 24-09-2009 08:43:02 16.3 C 10.68 g/m*3 16.3 C 0 km/h
45 24-09-2009 08:55:01 16.5 C 10.81 g/m*3 16.5 C 0 km/h
46 24-09-2009 09:07:02 16.6 C 10.74 g/m*3 16.6 C 0 km/h
47 24-09-2009 09:19:02 16.5 C 10.67 g/m*3 16.5 C 0 km/h
48 24-09-2009 09:31:02 16.6 C 10.74 g/m*3 16.6 C 0 km/h
49 24-09-2009 09:43:02 16.8 C 10.58 g/m*3 16.8 C 0 km/h
50 24-09-2009 09:55:01 16.9 C 10.64 g/m*3 16.9 C 0 km/h
Sensor: Nr:Datum:Temp:Abs-Feuchte:Windchill:Wind:
Aussen-T/F 51 24-09-2009 10:07:02 16.9 C 10.64 g/m*3 16.9 C 0 km/h
52 24-09-2009 10:19:01 17.1 C 10.77 g/m*3 17.1 C 0 km/h
53 24-09-2009 10:31:02 17.3 C 10.75 g/m*3 17.3 C 0 km/h
54 24-09-2009 10:43:02 17.8 C 10.93 g/m*3 17.8 C 0 km/h
55 24-09-2009 10:55:02 18.1 C 10.66 g/m*3 18.1 C 0 km/h
56 24-09-2009 11:07:02 18.4 C 10.7 g/m*3 18.4 C 0 km/h
57 24-09-2009 11:19:02 18.6 C 10.82 g/m*3 18.6 C 0 km/h
58 24-09-2009 11:31:02 19.3 C 10.62 g/m*3 19.3 C 0 km/h
59 24-09-2009 11:43:03 19.7 C 10.36 g/m*3 19.7 C 0 km/h
60 24-09-2009 11:55:02 20.1 C 10.43 g/m*3 20.1 C 0 km/h
61 24-09-2009 12:07:02 20.1 C 10.08 g/m*3 20.1 C 0 km/h
62 24-09-2009 12:19:02 19.9 C 10.48 g/m*3 19.9 C 0 km/h
63 24-09-2009 12:31:02 19.5 C 10.41 g/m*3 19.5 C 0 km/h
64 24-09-2009 12:43:02 19.9 C 10.65 g/m*3 19.9 C 0 km/h
65 24-09-2009 12:55:01 20.6 C 10.56 g/m*3 20.6 C 0 km/h
66 24-09-2009 13:07:01 20.9 C 10.38 g/m*3 20.9 C 0 km/h
67 24-09-2009 13:19:01 19.4 C 10.34 g/m*3 19.4 C 0 km/h
68 24-09-2009 13:31:01 17.7 C 11.16 g/m*3 17.7 C 0 km/h
69 24-09-2009 13:43:01 17.5 C 11.33 g/m*3 17.5 C 0 km/h
70 24-09-2009 13:55:01 17.6 C 11.4 g/m*3 17.6 C 0 km/h
71 24-09-2009 14:07:01 18.1 C 10.97 g/m*3 18.1 C 0 km/h
72 24-09-2009 14:19:01 18.5 C 10.6 g/m*3 18.5 C 0 km/h
73 24-09-2009 14:31:01 18.7 C 10.25 g/m*3 18.7 C 0 km/h
74 24-09-2009 14:43:01 19.4 C 10.51 g/m*3 19.4 C 0 km/h
75 24-09-2009 14:55:01 19.8 C 10.08 g/m*3 19.8 C 0 km/h
Sensor: Nr:Datum:Temp:Abs-Feuchte:Windchill:Wind:
Aussen-T/F 76 24-09-2009 15:07:01 20.3 C 10.02 g/m*3 20.3 C 0 km/h
77 24-09-2009 15:19:02 20.2 C 9.97 g/m*3 20.2 C 0 km/h
78 24-09-2009 15:31:01 19.7 C 9.85 g/m*3 19.7 C 0 km/h
79 24-09-2009 15:43:01 19.4 C 10.01 g/m*3 19.4 C 0 km/h
80 24-09-2009 15:55:01 19.7 C 10.02 g/m*3 19.7 C 0 km/h
81 24-09-2009 16:07:01 19.7 C 9.51 g/m*3 19.7 C 0 km/h
82 24-09-2009 16:19:02 19.6 C 9.96 g/m*3 19.6 C 0 km/h
83 24-09-2009 16:31:01 19.5 C 9.9 g/m*3 19.5 C 0 km/h
84 24-09-2009 16:43:01 19.5 C 9.73 g/m*3 19.5 C 0 km/h
85 24-09-2009 16:55:02 19 C 9.61 g/m*3 19 C 0 km/h
86 24-09-2009 17:07:02 19 C 9.78 g/m*3 19 C 0 km/h
87 24-09-2009 17:19:03 18.8 C 9.66 g/m*3 18.8 C 0 km/h
88 24-09-2009 17:31:02 18.5 C 9.81 g/m*3 18.5 C 0 km/h
89 24-09-2009 17:43:02 18.5 C 9.97 g/m*3 18.5 C 0 km/h
90 24-09-2009 17:55:03 18.5 C 10.13 g/m*3 18.5 C 0 km/h
91 24-09-2009 18:07:02 18.6 C 10.35 g/m*3 18.6 C 0 km/h
92 24-09-2009 18:19:02 18.5 C 10.28 g/m*3 18.5 C 0 km/h
93 24-09-2009 18:31:02 18.5 C 10.13 g/m*3 18.5 C 0 km/h
94 24-09-2009 18:43:02 18.2 C 9.79 g/m*3 18.2 C 0 km/h
95 24-09-2009 18:55:02 18.3 C 10.01 g/m*3 18.3 C 0 km/h
96 24-09-2009 19:07:02 17.9 C 9.77 g/m*3 17.9 C 0 km/h
97 24-09-2009 19:19:02 17.7 C 9.66 g/m*3 17.7 C 0 km/h
98 24-09-2009 19:31:02 17.6 C 9.6 g/m*3 17.6 C 0 km/h
99 24-09-2009 19:43:02 17.4 C 9.63 g/m*3 17.4 C 0 km/h
100 24-09-2009 19:55:02 17.2 C 9.67 g/m*3 17.2 C 0 km/h
Sensor: Nr:Datum:Temp:Abs-Feuchte:Windchill:Wind:
Aussen-T/F 101 24-09-2009 20:07:01 16.9 C 9.92 g/m*3 16.9 C 0 km/h
102 24-09-2009 20:19:02 16.6 C 10.03 g/m*3 16.6 C 0 km/h
103 24-09-2009 20:31:02 16.4 C 10.05 g/m*3 16.4 C 0 km/h
104 24-09-2009 20:43:02 16.1 C 10.01 g/m*3 16.1 C 0 km/h
105 24-09-2009 20:55:02 15.7 C 10.03 g/m*3 15.7 C 0 km/h
106 24-09-2009 21:07:01 15.5 C 10.05 g/m*3 15.5 C 0 km/h
107 24-09-2009 21:19:02 15.5 C 10.18 g/m*3 15.5 C 0 km/h
108 24-09-2009 21:31:01 15.3 C 10.19 g/m*3 15.3 C 0 km/h
109 24-09-2009 21:43:01 15 C 10.13 g/m*3 15 C 0 km/h
110 24-09-2009 21:55:03 14.8 C 10.26 g/m*3 14.8 C 0 km/h
111 24-09-2009 22:08:03 14.8 C 10.39 g/m*3 14.8 C 0 km/h
112 24-09-2009 22:20:03 14.7 C 10.32 g/m*3 14.7 C 0 km/h
113 24-09-2009 22:32:03 14.3 C 10.2 g/m*3 14.3 C 0 km/h
114 24-09-2009 22:44:03 14.1 C 10.07 g/m*3 14.1 C 0 km/h
115 24-09-2009 22:56:04 14 C 10.01 g/m*3 14 C 0 km/h
116 24-09-2009 23:08:04 14 C 10.13 g/m*3 14 C 0 km/h
117 24-09-2009 23:20:04 14 C 10.13 g/m*3 14 C 0 km/h
118 24-09-2009 23:32:04 13.8 C 10.13 g/m*3 13.8 C 0 km/h
119 24-09-2009 23:44:04 13.4 C 9.88 g/m*3 13.4 C 0 km/h
120 24-09-2009 23:56:04 13.2 C 9.76 g/m*3 13.2 C 0 km/h
121 25-09-2009 00:08:04 13 C 9.64 g/m*3 13 C 0 km/h
122 25-09-2009 00:20:04 12.8 C 9.63 g/m*3 12.8 C 0 km/h
123 25-09-2009 00:32:04 12.7 C 9.57 g/m*3 12.7 C 0 km/h
124 25-09-2009 00:44:04 12.5 C 9.57 g/m*3 12.5 C 0 km/h
125 25-09-2009 00:56:04 12.4 C 9.51 g/m*3 12.4 C 0 km/h
Sensor: Nr:Datum:Temp:Abs-Feuchte:Windchill:Wind:
Aussen-T/F 126 25-09-2009 01:08:04 12.3 C 9.45 g/m*3 12.3 C 0 km/h
127 25-09-2009 01:20:04 12.5 C 9.68 g/m*3 12.5 C 0 km/h
128 25-09-2009 01:32:04 12.6 C 9.74 g/m*3 12.6 C 0 km/h
129 25-09-2009 01:44:04 12.6 C 9.74 g/m*3 12.6 C 0 km/h
130 25-09-2009 01:56:04 12.7 C 9.8 g/m*3 12.7 C 0 km/h
131 25-09-2009 02:08:04 12.8 C 9.74 g/m*3 12.8 C 0 km/h
132 25-09-2009 02:20:04 12.8 C 9.74 g/m*3 12.8 C 0 km/h
133 25-09-2009 02:32:04 12.8 C 9.63 g/m*3 12.8 C 0 km/h
134 25-09-2009 02:44:04 12.7 C 9.57 g/m*3 12.7 C 0 km/h
135 25-09-2009 02:56:04 12.5 C 9.57 g/m*3 12.5 C 0 km/h
136 25-09-2009 03:08:05 12.4 C 9.51 g/m*3 12.4 C 0 km/h
137 25-09-2009 03:20:05 12.2 C 9.39 g/m*3 12.2 C 0 km/h
138 25-09-2009 03:32:05 12.3 C 9.56 g/m*3 12.3 C 0 km/h
139 25-09-2009 03:44:05 12.3 C 9.56 g/m*3 12.3 C 0 km/h
140 25-09-2009 03:56:05 12.4 C 9.62 g/m*3 12.4 C 0 km/h
141 25-09-2009 04:08:05 12.3 C 9.56 g/m*3 12.3 C 0 km/h
142 25-09-2009 04:20:05 11.8 C 9.26 g/m*3 11.8 C 0 km/h
143 25-09-2009 04:32:05 11.7 C 9.2 g/m*3 11.7 C 0 km/h
144 25-09-2009 04:44:05 11.7 C 9.31 g/m*3 11.7 C 0 km/h
145 25-09-2009 04:56:05 11.5 C 9.19 g/m*3 11.5 C 0 km/h
146 25-09-2009 05:08:05 11.2 C 9.02 g/m*3 11.2 C 0 km/h
147 25-09-2009 05:20:05 11.1 C 8.96 g/m*3 11.1 C 0 km/h
148 25-09-2009 05:32:05 11.1 C 9.07 g/m*3 11.1 C 0 km/h
149 25-09-2009 05:44:05 11 C 9.01 g/m*3 11 C 0 km/h
150 25-09-2009 05:56:05 10.8 C 8.9 g/m*3 10.8 C 0 km/h
Sensor: Nr:Datum:Temp:Abs-Feuchte:Windchill:Wind:
Aussen-T/F 151 25-09-2009 06:08:05 10.8 C 8.99 g/m*3 10.8 C 0 km/h
152 25-09-2009 06:20:05 10.9 C 9.05 g/m*3 10.9 C 0 km/h
153 25-09-2009 06:32:05 11 C 9.01 g/m*3 11 C 0 km/h
154 25-09-2009 06:44:05 10.9 C 8.95 g/m*3 10.9 C 0 km/h
155 25-09-2009 06:56:05 10.9 C 8.95 g/m*3 10.9 C 0 km/h
156 25-09-2009 07:08:06 11.1 C 8.96 g/m*3 11.1 C 0 km/h
157 25-09-2009 07:20:06 11.1 C 8.96 g/m*3 11.1 C 0 km/h
158 25-09-2009 07:32:04 11 C 8.91 g/m*3 11 C 0 km/h
159 25-09-2009 07:44:04 10.9 C 8.95 g/m*3 10.9 C 0 km/h
160 25-09-2009 07:56:02 11.1 C 9.07 g/m*3 11.1 C 0 km/h
161 25-09-2009 08:08:02 11.3 C 9.18 g/m*3 11.3 C 0 km/h
162 25-09-2009 08:20:02 11.4 C 9.14 g/m*3 11.4 C 0 km/h
163 25-09-2009 08:32:02 11.6 C 9.25 g/m*3 11.6 C 0 km/h
164 25-09-2009 08:44:02 11.9 C 9.43 g/m*3 11.9 C 0 km/h
165 25-09-2009 08:56:02 11.8 C 9.16 g/m*3 11.8 C 0 km/h
166 25-09-2009 09:08:01 11.9 C 9.21 g/m*3 11.9 C 0 km/h
167 25-09-2009 09:20:01 12.4 C 9.4 g/m*3 12.4 C 0 km/h
168 25-09-2009 09:32:02 12.7 C 9.35 g/m*3 12.7 C 0 km/h
169 25-09-2009 09:44:02 13.2 C 9.42 g/m*3 13.2 C 0 km/h
170 25-09-2009 09:56:02 13.4 C 9.18 g/m*3 13.4 C 0 km/h
171 25-09-2009 10:08:02 14 C 9.17 g/m*3 14 C 0 km/h
172 25-09-2009 10:20:02 14.1 C 8.86 g/m*3 14.1 C 0 km/h
173 25-09-2009 10:32:02 14.3 C 8.85 g/m*3 14.3 C 0 km/h
174 25-09-2009 10:44:02 14.4 C 8.65 g/m*3 14.4 C 0 km/h
175 25-09-2009 10:56:02 14.6 C 8.76 g/m*3 14.6 C 0 km/h
Sensor: Nr:Datum:Temp:Abs-Feuchte:Windchill:Wind:
Aussen-T/F 176 25-09-2009 11:08:02 14.7 C 8.69 g/m*3 14.7 C 0 km/h
177 25-09-2009 11:20:01 15 C 8.59 g/m*3 15 C 0 km/h
178 25-09-2009 11:32:02 15 C 8.72 g/m*3 15 C 0 km/h
179 25-09-2009 11:44:02 15 C 8.85 g/m*3 15 C 0 km/h
180 25-09-2009 11:56:02 15.5 C 8.99 g/m*3 15.5 C 0 km/h
181 25-09-2009 12:08:02 15.7 C 8.83 g/m*3 15.7 C 0 km/h
182 25-09-2009 12:20:02 16.3 C 8.74 g/m*3 16.3 C 0 km/h
183 25-09-2009 12:32:02 16.6 C 8.9 g/m*3 16.6 C 0 km/h
184 25-09-2009 12:44:02 16.9 C 8.77 g/m*3 16.9 C 0 km/h
185 25-09-2009 12:56:03 17.7 C 8.6 g/m*3 17.7 C 0 km/h
186 25-09-2009 13:08:02 18.2 C 8.24 g/m*3 18.2 C 0 km/h
187 25-09-2009 13:20:02 18.8 C 8.37 g/m*3 18.8 C 0 km/h
188 25-09-2009 13:32:02 19.4 C 7.67 g/m*3 19.4 C 0 km/h
189 25-09-2009 13:44:02 20 C 7.09 g/m*3 20 C 0 km/h
190 25-09-2009 13:56:02 20.9 C 7.1 g/m*3 20.9 C 0 km/h
191 25-09-2009 14:08:02 21 C 5.86 g/m*3 21 C 0 km/h
192 25-09-2009 14:20:01 21.3 C 6.15 g/m*3 21.3 C 0 km/h
193 25-09-2009 14:32:02 22.7 C 6.26 g/m*3 22.7 C 0 km/h
194 25-09-2009 14:44:02 22.1 C 6.05 g/m*3 22.1 C 0 km/h
195 25-09-2009 14:56:02 21.5 C 6.6 g/m*3 21.5 C 0 km/h
196 25-09-2009 15:08:02 20.4 C 6.55 g/m*3 20.4 C 0 km/h
197 25-09-2009 15:20:02 20.5 C 7.12 g/m*3 20.5 C 0 km/h
198 25-09-2009 15:32:02 22.1 C 6.44 g/m*3 22.1 C 0 km/h
199 25-09-2009 15:44:02 23.1 C 5.58 g/m*3 23.1 C 0 km/h
200 25-09-2009 15:56:02 21.1 C 5.53 g/m*3 21.1 C 0 km/h
Sensor: Nr:Datum:Temp:Abs-Feuchte:Windchill:Wind:
Aussen-T/F 201 25-09-2009 16:08:02 21.3 C 5.96 g/m*3 21.3 C 0 km/h
202 25-09-2009 16:20:02 21.2 C 6.12 g/m*3 21.2 C 0 km/h
203 25-09-2009 16:32:02 20.4 C 6.37 g/m*3 20.4 C 0 km/h
204 25-09-2009 16:44:02 20.5 C 6.41 g/m*3 20.5 C 0 km/h
205 25-09-2009 16:56:02 21.4 C 6.19 g/m*3 21.4 C 0 km/h
206 25-09-2009 17:08:02 20.8 C 5.98 g/m*3 20.8 C 0 km/h
207 25-09-2009 17:20:02 21.5 C 6.22 g/m*3 21.5 C 0 km/h
208 25-09-2009 17:32:02 21.5 C 6.41 g/m*3 21.5 C 0 km/h
209 25-09-2009 17:44:02 20.8 C 6.7 g/m*3 20.8 C 0 km/h
210 25-09-2009 17:56:01 20 C 6.91 g/m*3 20 C 0 km/h
211 25-09-2009 18:08:01 19.9 C 7.39 g/m*3 19.9 C 0 km/h
212 25-09-2009 18:20:02 19.5 C 7.55 g/m*3 19.5 C 0 km/h
213 25-09-2009 18:32:01 19.1 C 7.38 g/m*3 19.1 C 0 km/h
214 25-09-2009 18:44:01 18.6 C 7.48 g/m*3 18.6 C 0 km/h
215 25-09-2009 18:56:02 18.4 C 7.55 g/m*3 18.4 C 0 km/h
216 25-09-2009 19:08:02 17.8 C 7.44 g/m*3 17.8 C 0 km/h
217 25-09-2009 19:20:03 17 C 7.23 g/m*3 17 C 0 km/h
218 25-09-2009 19:32:02 16.8 C 7.43 g/m*3 16.8 C 0 km/h
219 25-09-2009 19:44:02 16.5 C 7.44 g/m*3 16.5 C 0 km/h
220 25-09-2009 19:56:03 16.2 C 7.31 g/m*3 16.2 C 0 km/h
221 25-09-2009 20:08:02 16 C 7.49 g/m*3 16 C 0 km/h
222 25-09-2009 20:20:02 15.6 C 7.45 g/m*3 15.6 C 0 km/h
223 25-09-2009 20:32:02 15.2 C 7.53 g/m*3 15.2 C 0 km/h
224 25-09-2009 20:44:02 15.1 C 7.61 g/m*3 15.1 C 0 km/h
225 25-09-2009 20:56:02 15.3 C 7.7 g/m*3 15.3 C 0 km/h
Sensor: Nr:Datum:Temp:Abs-Feuchte:Windchill:Wind:
Aussen-T/F 226 25-09-2009 21:08:02 15.5 C 7.93 g/m*3 15.5 C 0 km/h
227 25-09-2009 21:20:02 15.5 C 8.06 g/m*3 15.5 C 0 km/h
228 25-09-2009 21:32:02 15.6 C 8.11 g/m*3 15.6 C 0 km/h
229 25-09-2009 21:44:02 15.4 C 8.01 g/m*3 15.4 C 0 km/h
230 25-09-2009 21:56:02 15.1 C 8 g/m*3 15.1 C 0 km/h
231 25-09-2009 22:08:02 14.9 C 8.03 g/m*3 14.9 C 0 km/h
232 25-09-2009 22:21:03 14.6 C 8.01 g/m*3 14.6 C 0 km/h
233 25-09-2009 22:33:03 14.3 C 7.86 g/m*3 14.3 C 0 km/h
234 25-09-2009 22:45:03 13.9 C 7.91 g/m*3 13.9 C 0 km/h
235 25-09-2009 22:57:03 13.7 C 7.93 g/m*3 13.7 C 0 km/h
236 25-09-2009 23:09:03 13.3 C 7.97 g/m*3 13.3 C 0 km/h
237 25-09-2009 23:21:03 13.1 C 7.99 g/m*3 13.1 C 0 km/h
238 25-09-2009 23:33:03 13 C 8.05 g/m*3 13 C 0 km/h
239 25-09-2009 23:45:03 12.7 C 8.13 g/m*3 12.7 C 0 km/h
240 25-09-2009 23:57:03 12.6 C 8.08 g/m*3 12.6 C 0 km/h
241 26-09-2009 00:09:03 12.4 C 8.09 g/m*3 12.4 C 0 km/h
242 26-09-2009 00:21:03 12.1 C 7.94 g/m*3 12.1 C 0 km/h
243 26-09-2009 00:33:03 12.1 C 8.04 g/m*3 12.1 C 0 km/h
244 26-09-2009 00:45:03 11.8 C 8.1 g/m*3 11.8 C 0 km/h
245 26-09-2009 00:57:03 11.8 C 8.1 g/m*3 11.8 C 0 km/h
246 26-09-2009 01:09:03 11.7 C 8.05 g/m*3 11.7 C 0 km/h
247 26-09-2009 01:21:03 11.6 C 8.11 g/m*3 11.6 C 0 km/h
248 26-09-2009 01:33:03 11.7 C 8.16 g/m*3 11.7 C 0 km/h
249 26-09-2009 01:45:03 11.5 C 8.06 g/m*3 11.5 C 0 km/h
250 26-09-2009 01:57:03 11.2 C 7.91 g/m*3 11.2 C 0 km/h
Sensor: Nr:Datum:Temp:Abs-Feuchte:Windchill:Wind:
Aussen-T/F 251 26-09-2009 02:09:04 11.1 C 7.86 g/m*3 11.1 C 0 km/h
252 26-09-2009 02:21:04 10.9 C 7.86 g/m*3 10.9 C 0 km/h
253 26-09-2009 02:33:04 10.7 C 7.86 g/m*3 10.7 C 0 km/h
254 26-09-2009 02:45:04 10.6 C 7.81 g/m*3 10.6 C 0 km/h
255 26-09-2009 02:57:04 10.4 C 7.81 g/m*3 10.4 C 0 km/h
256 26-09-2009 03:09:04 10.1 C 7.66 g/m*3 10.1 C 0 km/h
257 26-09-2009 03:21:04 10 C 7.61 g/m*3 10 C 0 km/h
258 26-09-2009 03:33:04 9.8 C 7.61 g/m*3 9.8 C 0 km/h
259 26-09-2009 03:45:04 9.7 C 7.65 g/m*3 9.7 C 0 km/h
260 26-09-2009 03:57:04 9.5 C 7.55 g/m*3 9.5 C 0 km/h
261 26-09-2009 04:09:04 9.3 C 7.55 g/m*3 9.3 C 0 km/h
262 26-09-2009 04:21:04 9.2 C 7.5 g/m*3 9.2 C 0 km/h
263 26-09-2009 04:33:04 9.1 C 7.54 g/m*3 9.1 C 0 km/h
264 26-09-2009 04:45:04 9 C 7.49 g/m*3 9 C 0 km/h
265 26-09-2009 04:57:04 8.8 C 7.57 g/m*3 8.8 C 0 km/h
266 26-09-2009 05:09:04 8.7 C 7.52 g/m*3 8.7 C 0 km/h
267 26-09-2009 05:21:04 8.6 C 7.48 g/m*3 8.6 C 0 km/h
268 26-09-2009 05:33:04 8.5 C 7.43 g/m*3 8.5 C 0 km/h
269 26-09-2009 05:45:04 8.4 C 7.3 g/m*3 8.4 C 0 km/h
270 26-09-2009 05:57:04 8.2 C 7.29 g/m*3 8.2 C 0 km/h
271 26-09-2009 06:09:05 8 C 7.19 g/m*3 8 C 0 km/h
272 26-09-2009 06:21:05 7.8 C 7.26 g/m*3 7.8 C 0 km/h
273 26-09-2009 06:33:05 7.8 C 7.26 g/m*3 7.8 C 0 km/h
274 26-09-2009 06:45:05 7.8 C 7.26 g/m*3 7.8 C 0 km/h
275 26-09-2009 06:57:05 7.8 C 7.35 g/m*3 7.8 C 0 km/h
Sensor: Nr:Datum:Temp:Abs-Feuchte:Windchill:Wind:
Aussen-T/F 276 26-09-2009 07:09:05 7.9 C 7.39 g/m*3 7.9 C 0 km/h
277 26-09-2009 07:21:05 7.9 C 7.39 g/m*3 7.9 C 0 km/h
278 26-09-2009 07:33:05 7.9 C 7.39 g/m*3 7.9 C 0 km/h
279 26-09-2009 07:45:05 8.1 C 7.41 g/m*3 8.1 C 0 km/h
280 26-09-2009 07:57:05 7.9 C 7.39 g/m*3 7.9 C 0 km/h
281 26-09-2009 08:09:05 7.8 C 7.43 g/m*3 7.8 C 0 km/h
282 26-09-2009 08:21:05 7.9 C 7.47 g/m*3 7.9 C 0 km/h
283 26-09-2009 08:33:05 8 C 7.44 g/m*3 8 C 0 km/h
284 26-09-2009 08:45:02 8.1 C 7.49 g/m*3 8.1 C 0 km/h
285 26-09-2009 08:57:02 8.5 C 7.77 g/m*3 8.5 C 0 km/h
286 26-09-2009 09:09:03 8.7 C 7.78 g/m*3 8.7 C 0 km/h
287 26-09-2009 09:21:02 9.1 C 7.9 g/m*3 9.1 C 0 km/h
288 26-09-2009 09:33:02 9.2 C 7.95 g/m*3 9.2 C 0 km/h
289 26-09-2009 09:45:01 9.5 C 8.1 g/m*3 9.5 C 0 km/h
290 26-09-2009 09:57:01 9.9 C 8.31 g/m*3 9.9 C 0 km/h
291 26-09-2009 10:09:02 10.2 C 8.37 g/m*3 10.2 C 0 km/h
292 26-09-2009 10:21:01 10.9 C 8.65 g/m*3 10.9 C 0 km/h
293 26-09-2009 10:33:02 11.1 C 8.36 g/m*3 11.1 C 0 km/h
294 26-09-2009 10:45:01 11.2 C 8.41 g/m*3 11.2 C 0 km/h
295 26-09-2009 10:57:01 11.7 C 8.79 g/m*3 11.7 C 0 km/h
296 26-09-2009 11:09:02 12.2 C 8.85 g/m*3 12.2 C 0 km/h
297 26-09-2009 11:21:01 12.8 C 8.85 g/m*3 12.8 C 0 km/h
298 26-09-2009 11:33:02 13.4 C 8.72 g/m*3 13.4 C 0 km/h
299 26-09-2009 11:45:02 14.1 C 8.86 g/m*3 14.1 C 0 km/h
300 26-09-2009 11:57:02 14.7 C 8.81 g/m*3 14.7 C 0 km/h
Sensor: Nr:Datum:Temp:Abs-Feuchte:Windchill:Wind:
Aussen-T/F 301 26-09-2009 12:09:02 15.2 C 8.83 g/m*3 15.2 C 0 km/h
302 26-09-2009 12:21:01 15.6 C 8.64 g/m*3 15.6 C 0 km/h
303 26-09-2009 12:33:02 16.1 C 8.5 g/m*3 16.1 C 0 km/h
304 26-09-2009 12:45:02 16.4 C 8.65 g/m*3 16.4 C 0 km/h
305 26-09-2009 12:57:02 17.1 C 8.73 g/m*3 17.1 C 0 km/h
306 26-09-2009 13:09:02 17.6 C 8.85 g/m*3 17.6 C 0 km/h
307 26-09-2009 13:21:02 18.2 C 8.39 g/m*3 18.2 C 0 km/h
308 26-09-2009 13:33:02 18.9 C 8.1 g/m*3 18.9 C 0 km/h
309 26-09-2009 13:45:01 19.7 C 7.81 g/m*3 19.7 C 0 km/h
310 26-09-2009 13:57:01 20.4 C 8.14 g/m*3 20.4 C 0 km/h
311 26-09-2009 14:09:02 20.9 C 7.29 g/m*3 20.9 C 0 km/h
312 26-09-2009 14:21:02 21.1 C 6.82 g/m*3 21.1 C 0 km/h
313 26-09-2009 14:33:02 21.9 C 6.95 g/m*3 21.9 C 0 km/h
314 26-09-2009 14:45:02 22.7 C 7.07 g/m*3 22.7 C 0 km/h
315 26-09-2009 14:57:02 23 C 6.37 g/m*3 23 C 0 km/h
316 26-09-2009 15:09:01 23.4 C 6.52 g/m*3 23.4 C 0 km/h
317 26-09-2009 15:21:02 23.8 C 6.45 g/m*3 23.8 C 0 km/h
318 26-09-2009 15:33:01 24.1 C 6.56 g/m*3 24.1 C 0 km/h
319 26-09-2009 15:45:02 23.9 C 6.06 g/m*3 23.9 C 0 km/h
320 26-09-2009 15:57:02 24 C 5.87 g/m*3 24 C 0 km/h
321 26-09-2009 16:09:01 24.2 C 5.94 g/m*3 24.2 C 0 km/h
322 26-09-2009 16:21:02 24.4 C 6.68 g/m*3 24.4 C 0 km/h
323 26-09-2009 16:33:02 24.7 C 5.88 g/m*3 24.7 C 0 km/h
324 26-09-2009 16:45:02 24.7 C 6.11 g/m*3 24.7 C 0 km/h
325 26-09-2009 16:57:03 25.7 C 6.46 g/m*3 25.7 C 0 km/h
Sensor: Nr:Datum:Temp:Abs-Feuchte:Windchill:Wind:
Aussen-T/F 326 26-09-2009 17:09:02 25.6 C 6.19 g/m*3 25.6 C 0 km/h
327 26-09-2009 17:21:02 26 C 6.33 g/m*3 26 C 0 km/h
328 26-09-2009 17:33:02 25.7 C 6.94 g/m*3 25.7 C 0 km/h
329 26-09-2009 17:45:02 25.5 C 7.1 g/m*3 25.5 C 0 km/h
330 26-09-2009 17:57:02 25 C 6.91 g/m*3 25 C 0 km/h
331 26-09-2009 18:09:02 24.5 C 6.94 g/m*3 24.5 C 0 km/h
332 26-09-2009 18:21:01 23.7 C 7.06 g/m*3 23.7 C 0 km/h
333 26-09-2009 18:33:02 22.7 C 7.07 g/m*3 22.7 C 0 km/h
334 26-09-2009 18:45:02 22 C 7.18 g/m*3 22 C 0 km/h
335 26-09-2009 18:57:02 21.1 C 7.19 g/m*3 21.1 C 0 km/h
336 26-09-2009 19:09:02 20 C 7.26 g/m*3 20 C 0 km/h
337 26-09-2009 19:21:02 19.1 C 7.38 g/m*3 19.1 C 0 km/h
338 26-09-2009 19:33:02 18.3 C 7.35 g/m*3 18.3 C 0 km/h
339 26-09-2009 19:45:02 17.8 C 7.44 g/m*3 17.8 C 0 km/h
340 26-09-2009 19:57:02 17.2 C 7.47 g/m*3 17.2 C 0 km/h
341 26-09-2009 20:09:02 17.1 C 7.57 g/m*3 17.1 C 0 km/h
342 26-09-2009 20:21:02 16.7 C 7.53 g/m*3 16.7 C 0 km/h
343 26-09-2009 20:33:02 16.2 C 7.58 g/m*3 16.2 C 0 km/h
344 26-09-2009 20:45:01 16 C 7.49 g/m*3 16 C 0 km/h
345 26-09-2009 20:57:01 15.8 C 7.67 g/m*3 15.8 C 0 km/h
346 26-09-2009 21:09:02 15.5 C 7.67 g/m*3 15.5 C 0 km/h
347 26-09-2009 21:21:01 15.3 C 7.57 g/m*3 15.3 C 0 km/h
348 26-09-2009 21:33:01 14.9 C 7.65 g/m*3 14.9 C 0 km/h
349 26-09-2009 21:45:01 14.7 C 7.81 g/m*3 14.7 C 0 km/h
350 26-09-2009 21:57:01 14.5 C 7.71 g/m*3 14.5 C 0 km/h
Sensor: Nr:Datum:Temp:Abs-Feuchte:Windchill:Wind:
Aussen-T/F 351 26-09-2009 22:09:01 14.3 C 7.74 g/m*3 14.3 C 0 km/h
352 26-09-2009 22:21:01 14 C 7.72 g/m*3 14 C 0 km/h
353 26-09-2009 22:33:02 13.8 C 7.86 g/m*3 13.8 C 0 km/h
354 26-09-2009 22:45:02 13.6 C 7.89 g/m*3 13.6 C 0 km/h
355 26-09-2009 22:57:02 13.4 C 7.79 g/m*3 13.4 C 0 km/h
356 26-09-2009 23:09:02 13.2 C 7.81 g/m*3 13.2 C 0 km/h
357 26-09-2009 23:21:02 13 C 7.94 g/m*3 13 C 0 km/h
358 26-09-2009 23:33:02 12.6 C 8.08 g/m*3 12.6 C 0 km/h
359 26-09-2009 23:45:02 12.5 C 8.25 g/m*3 12.5 C 0 km/h
360 26-09-2009 23:57:02 12.2 C 8.09 g/m*3 12.2 C 0 km/h
361 27-09-2009 00:09:03 12.1 C 8.04 g/m*3 12.1 C 0 km/h
362 27-09-2009 00:21:02 11.9 C 8.05 g/m*3 11.9 C 0 km/h
363 27-09-2009 00:33:02 11.7 C 8.16 g/m*3 11.7 C 0 km/h
364 27-09-2009 00:45:02 11.5 C 8.06 g/m*3 11.5 C 0 km/h
365 27-09-2009 00:57:02 11.5 C 8.16 g/m*3 11.5 C 0 km/h
366 27-09-2009 01:09:02 11.4 C 8.11 g/m*3 11.4 C 0 km/h
367 27-09-2009 01:21:02 11.1 C 7.96 g/m*3 11.1 C 0 km/h
368 27-09-2009 01:33:02 11.1 C 7.96 g/m*3 11.1 C 0 km/h
369 27-09-2009 01:45:02 10.9 C 7.96 g/m*3 10.9 C 0 km/h
370 27-09-2009 01:57:02 10.8 C 8.01 g/m*3 10.8 C 0 km/h
371 27-09-2009 02:09:01 10.6 C 8 g/m*3 10.6 C 0 km/h
372 27-09-2009 02:21:02 10.5 C 7.95 g/m*3 10.5 C 0 km/h
373 27-09-2009 02:33:02 10.4 C 7.9 g/m*3 10.4 C 0 km/h
374 27-09-2009 02:45:01 10.2 C 7.8 g/m*3 10.2 C 0 km/h
375 27-09-2009 02:57:01 10.1 C 7.75 g/m*3 10.1 C 0 km/h
Sensor: Nr:Datum:Temp:Abs-Feuchte:Windchill:Wind:
Aussen-T/F 376 27-09-2009 03:09:01 9.9 C 7.75 g/m*3 9.9 C 0 km/h
377 27-09-2009 03:21:01 9.8 C 7.7 g/m*3 9.8 C 0 km/h
378 27-09-2009 03:33:01 9.7 C 7.65 g/m*3 9.7 C 0 km/h
379 27-09-2009 03:45:01 9.6 C 7.69 g/m*3 9.6 C 0 km/h
380 27-09-2009 03:57:02 9.5 C 7.65 g/m*3 9.5 C 0 km/h
381 27-09-2009 04:09:01 9.3 C 7.55 g/m*3 9.3 C 0 km/h
382 27-09-2009 04:21:01 9.3 C 7.55 g/m*3 9.3 C 0 km/h
383 27-09-2009 04:33:02 9.2 C 7.5 g/m*3 9.2 C 0 km/h
384 27-09-2009 04:45:01 9 C 7.41 g/m*3 9 C 0 km/h
385 27-09-2009 04:57:01 8.9 C 7.45 g/m*3 8.9 C 0 km/h
386 27-09-2009 05:09:02 8.8 C 7.4 g/m*3 8.8 C 0 km/h
387 27-09-2009 05:21:01 8.6 C 7.3 g/m*3 8.6 C 0 km/h
388 27-09-2009 05:33:02 8.5 C 7.34 g/m*3 8.5 C 0 km/h
389 27-09-2009 05:45:01 8.5 C 7.43 g/m*3 8.5 C 0 km/h
390 27-09-2009 05:57:01 8.6 C 7.48 g/m*3 8.6 C 0 km/h
391 27-09-2009 06:09:02 8.6 C 7.56 g/m*3 8.6 C 0 km/h
392 27-09-2009 06:21:01 8.6 C 7.56 g/m*3 8.6 C 0 km/h
393 27-09-2009 06:33:01 8.7 C 7.7 g/m*3 8.7 C 0 km/h
394 27-09-2009 06:45:01 8.9 C 7.8 g/m*3 8.9 C 0 km/h
395 27-09-2009 06:57:01 8.8 C 7.66 g/m*3 8.8 C 0 km/h
396 27-09-2009 07:09:02 8.8 C 7.66 g/m*3 8.8 C 0 km/h
397 27-09-2009 07:21:01 8.7 C 7.61 g/m*3 8.7 C 0 km/h
398 27-09-2009 07:33:01 8.8 C 7.66 g/m*3 8.8 C 0 km/h
399 27-09-2009 07:45:01 8.8 C 7.57 g/m*3 8.8 C 0 km/h
400 27-09-2009 07:57:01 8.5 C 7.43 g/m*3 8.5 C 0 km/h
Sensor: Nr:Datum:Temp:Abs-Feuchte:Windchill:Wind:
Aussen-T/F 401 27-09-2009 08:09:01 8.5 C 7.51 g/m*3 8.5 C 0 km/h
402 27-09-2009 08:21:01 8.5 C 7.51 g/m*3 8.5 C 0 km/h
403 27-09-2009 08:33:01 8.3 C 7.42 g/m*3 8.3 C 0 km/h
404 27-09-2009 08:45:01 8.5 C 7.6 g/m*3 8.5 C 0 km/h
405 27-09-2009 08:57:01 8.7 C 7.7 g/m*3 8.7 C 0 km/h
406 27-09-2009 09:09:01 8.8 C 7.66 g/m*3 8.8 C 0 km/h
407 27-09-2009 09:21:02 8.9 C 7.71 g/m*3 8.9 C 0 km/h
408 27-09-2009 09:33:01 9.3 C 7.73 g/m*3 9.3 C 0 km/h
409 27-09-2009 09:45:02 9.4 C 7.69 g/m*3 9.4 C 0 km/h
410 27-09-2009 09:57:02 9.7 C 7.74 g/m*3 9.7 C 0 km/h
411 27-09-2009 10:09:01 10.3 C 7.95 g/m*3 10.3 C 0 km/h
412 27-09-2009 10:21:02 11 C 8.11 g/m*3 11 C 0 km/h
413 27-09-2009 10:33:01 11.5 C 8.06 g/m*3 11.5 C 0 km/h
414 27-09-2009 10:45:02 11.9 C 8.05 g/m*3 11.9 C 0 km/h
415 27-09-2009 10:57:02 12.5 C 8.14 g/m*3 12.5 C 0 km/h
416 27-09-2009 11:09:01 12.6 C 7.97 g/m*3 12.6 C 0 km/h
417 27-09-2009 11:21:02 13 C 8.05 g/m*3 13 C 0 km/h
418 27-09-2009 11:33:01 13.1 C 8.1 g/m*3 13.1 C 0 km/h
419 27-09-2009 11:45:02 13 C 8.28 g/m*3 13 C 0 km/h
420 27-09-2009 11:57:02 13.3 C 8.55 g/m*3 13.3 C 0 km/h
421 27-09-2009 12:09:01 13.8 C 8.7 g/m*3 13.8 C 0 km/h
422 27-09-2009 12:21:01 14.4 C 8.65 g/m*3 14.4 C 0 km/h
423 27-09-2009 12:33:02 15 C 8.85 g/m*3 15 C 0 km/h
424 27-09-2009 12:45:02 15.8 C 8.75 g/m*3 15.8 C 0 km/h
425 27-09-2009 12:57:02 16.4 C 8.79 g/m*3 16.4 C 0 km/h
Sensor: Nr:Datum:Temp:Abs-Feuchte:Windchill:Wind:
Aussen-T/F 426 27-09-2009 13:09:01 17.1 C 8.59 g/m*3 17.1 C 0 km/h
427 27-09-2009 13:21:01 18.2 C 8.7 g/m*3 18.2 C 0 km/h
428 27-09-2009 13:33:02 18.9 C 8.42 g/m*3 18.9 C 0 km/h
429 27-09-2009 13:45:01 19.3 C 8.79 g/m*3 19.3 C 0 km/h
430 27-09-2009 13:57:01 20.3 C 8.27 g/m*3 20.3 C 0 km/h
431 27-09-2009 14:09:01 21.1 C 8.29 g/m*3 21.1 C 0 km/h
432 27-09-2009 14:21:01 22 C 7.96 g/m*3 22 C 0 km/h
433 27-09-2009 14:33:02 22.3 C 8.29 g/m*3 22.3 C 0 km/h
434 27-09-2009 14:45:01 22.8 C 8.13 g/m*3 22.8 C 0 km/h
435 27-09-2009 14:57:01 23.3 C 7.74 g/m*3 23.3 C 0 km/h
436 27-09-2009 15:09:02 23.8 C 8.17 g/m*3 23.8 C 0 km/h
437 27-09-2009 15:21:01 24 C 6.53 g/m*3 24 C 0 km/h
438 27-09-2009 15:33:02 24.5 C 7.39 g/m*3 24.5 C 0 km/h
439 27-09-2009 15:45:01 25 C 6.68 g/m*3 25 C 0 km/h
440 27-09-2009 15:57:01 25.4 C 7.06 g/m*3 25.4 C 0 km/h
441 27-09-2009 16:09:02 25.7 C 7.18 g/m*3 25.7 C 0 km/h
442 27-09-2009 16:21:01 26 C 7.06 g/m*3 26 C 0 km/h
443 27-09-2009 16:33:01 25.9 C 7.02 g/m*3 25.9 C 0 km/h
444 27-09-2009 16:45:01 26.1 C 6.85 g/m*3 26.1 C 0 km/h
445 27-09-2009 16:57:01 26.2 C 6.65 g/m*3 26.2 C 0 km/h
446 27-09-2009 17:09:01 26.4 C 6.97 g/m*3 26.4 C 0 km/h
447 27-09-2009 17:21:01 26.4 C 6.47 g/m*3 26.4 C 0 km/h
448 27-09-2009 17:33:01 26.2 C 6.65 g/m*3 26.2 C 0 km/h
449 27-09-2009 17:45:01 25.1 C 6.71 g/m*3 25.1 C 0 km/h
450 27-09-2009 17:57:01 24.4 C 6.45 g/m*3 24.4 C 0 km/h
Sensor: Nr:Datum:Temp:Abs-Feuchte:Windchill:Wind:
Aussen-T/F 451 27-09-2009 18:09:01 23.9 C 6.49 g/m*3 23.9 C 0 km/h
452 27-09-2009 18:21:02 23.2 C 6.44 g/m*3 23.2 C 0 km/h
453 27-09-2009 18:33:01 22.3 C 6.52 g/m*3 22.3 C 0 km/h
454 27-09-2009 18:45:02 21.5 C 6.6 g/m*3 21.5 C 0 km/h
455 27-09-2009 18:57:02 20.3 C 6.86 g/m*3 20.3 C 0 km/h
456 27-09-2009 19:09:01 19.4 C 7.01 g/m*3 19.4 C 0 km/h
457 27-09-2009 19:21:02 18.7 C 7.04 g/m*3 18.7 C 0 km/h
458 27-09-2009 19:33:02 18.2 C 6.99 g/m*3 18.2 C 0 km/h
459 27-09-2009 19:45:01 17.9 C 7.18 g/m*3 17.9 C 0 km/h
460 27-09-2009 19:57:01 17.3 C 7.22 g/m*3 17.3 C 0 km/h
461 27-09-2009 20:09:01 16.9 C 7.34 g/m*3 16.9 C 0 km/h
462 27-09-2009 20:21:02 16.6 C 7.35 g/m*3 16.6 C 0 km/h
463 27-09-2009 20:33:01 16.3 C 7.49 g/m*3 16.3 C 0 km/h
464 27-09-2009 20:45:01 16.2 C 7.45 g/m*3 16.2 C 0 km/h
465 27-09-2009 20:57:01 16.1 C 7.4 g/m*3 16.1 C 0 km/h
466 27-09-2009 21:09:01 15.8 C 7.54 g/m*3 15.8 C 0 km/h
467 27-09-2009 21:21:02 15.5 C 7.67 g/m*3 15.5 C 0 km/h
468 27-09-2009 21:33:01 15.2 C 7.53 g/m*3 15.2 C 0 km/h
469 27-09-2009 21:45:02 14.9 C 7.77 g/m*3 14.9 C 0 km/h
470 27-09-2009 21:57:02 14.7 C 7.81 g/m*3 14.7 C 0 km/h
471 27-09-2009 22:09:01 14.5 C 7.84 g/m*3 14.5 C 0 km/h
472 27-09-2009 22:21:02 14 C 7.72 g/m*3 14 C 0 km/h
473 27-09-2009 22:33:01 13.8 C 7.86 g/m*3 13.8 C 0 km/h
474 27-09-2009 22:45:01 13.7 C 7.93 g/m*3 13.7 C 0 km/h
475 27-09-2009 22:57:01 13.3 C 7.97 g/m*3 13.3 C 0 km/h
Sensor: Nr:Datum:Temp:Abs-Feuchte:Windchill:Wind:
Aussen-T/F 476 27-09-2009 23:09:01 12.9 C 8.11 g/m*3 12.9 C 0 km/h
477 27-09-2009 23:21:02 12.9 C 8.11 g/m*3 12.9 C 0 km/h
478 27-09-2009 23:33:01 12.8 C 8.06 g/m*3 12.8 C 0 km/h
479 27-09-2009 23:45:02 12.7 C 8.01 g/m*3 12.7 C 0 km/h
480 27-09-2009 23:57:02 12.5 C 7.92 g/m*3 12.5 C 0 km/h
481 28-09-2009 00:09:01 12.5 C 8.14 g/m*3 12.5 C 0 km/h
482 28-09-2009 00:21:02 12.3 C 8.04 g/m*3 12.3 C 0 km/h
483 28-09-2009 00:33:01 12.1 C 8.04 g/m*3 12.1 C 0 km/h
484 28-09-2009 00:45:02 11.8 C 8 g/m*3 11.8 C 0 km/h
485 28-09-2009 00:57:02 11.6 C 8 g/m*3 11.6 C 0 km/h
486 28-09-2009 01:09:01 11.5 C 7.95 g/m*3 11.5 C 0 km/h
487 28-09-2009 01:21:02 11.4 C 8.01 g/m*3 11.4 C 0 km/h
488 28-09-2009 01:33:01 11.3 C 7.96 g/m*3 11.3 C 0 km/h
489 28-09-2009 01:45:02 11.2 C 7.91 g/m*3 11.2 C 0 km/h
490 28-09-2009 01:57:02 11.1 C 7.96 g/m*3 11.1 C 0 km/h
491 28-09-2009 02:09:01 11 C 7.91 g/m*3 11 C 0 km/h
492 28-09-2009 02:21:02 10.8 C 7.91 g/m*3 10.8 C 0 km/h
493 28-09-2009 02:33:01 10.8 C 7.91 g/m*3 10.8 C 0 km/h
494 28-09-2009 02:46:06 10.6 C 7.91 g/m*3 10.6 C 0 km/h
495 28-09-2009 02:58:06 10.5 C 7.95 g/m*3 10.5 C 0 km/h
496 28-09-2009 03:10:06 10.4 C 7.9 g/m*3 10.4 C 0 km/h
497 28-09-2009 03:22:06 10.2 C 7.9 g/m*3 10.2 C 0 km/h
498 28-09-2009 03:34:01 10 C 7.8 g/m*3 10 C 0 km/h
499 28-09-2009 03:46:01 9.9 C 7.94 g/m*3 9.9 C 0 km/h
500 28-09-2009 03:58:01 9.8 C 7.89 g/m*3 9.8 C 0 km/h
Sensor: Nr:Datum:Temp:Abs-Feuchte:Windchill:Wind:
Aussen-T/F 501 28-09-2009 04:10:02 9.7 C 7.93 g/m*3 9.7 C 0 km/h
502 28-09-2009 04:22:02 9.7 C 7.93 g/m*3 9.7 C 0 km/h
503 28-09-2009 04:34:02 9.5 C 7.83 g/m*3 9.5 C 0 km/h
504 28-09-2009 04:46:01 9.4 C 7.78 g/m*3 9.4 C 0 km/h
505 28-09-2009 04:58:01 9.3 C 7.73 g/m*3 9.3 C 0 km/h
506 28-09-2009 05:10:02 9.2 C 7.68 g/m*3 9.2 C 0 km/h
507 28-09-2009 05:22:02 9 C 7.58 g/m*3 9 C 0 km/h
508 28-09-2009 05:34:01 8.9 C 7.62 g/m*3 8.9 C 0 km/h
509 28-09-2009 05:46:02 8.9 C 7.71 g/m*3 8.9 C 0 km/h
510 28-09-2009 05:58:02 8.7 C 7.61 g/m*3 8.7 C 0 km/h
511 28-09-2009 06:10:01 8.7 C 7.61 g/m*3 8.7 C 0 km/h
512 28-09-2009 06:22:02 8.7 C 7.61 g/m*3 8.7 C 0 km/h
513 28-09-2009 06:34:01 8.5 C 7.51 g/m*3 8.5 C 0 km/h
514 28-09-2009 06:46:02 8.5 C 7.51 g/m*3 8.5 C 0 km/h
515 28-09-2009 06:58:02 8.4 C 7.47 g/m*3 8.4 C 0 km/h
516 28-09-2009 07:10:02 8.2 C 7.37 g/m*3 8.2 C 0 km/h
517 28-09-2009 07:22:02 8.2 C 7.45 g/m*3 8.2 C 0 km/h
518 28-09-2009 07:34:03 8 C 7.36 g/m*3 8 C 0 km/h
519 28-09-2009 07:46:02 8 C 7.36 g/m*3 8 C 0 km/h
520 28-09-2009 07:58:03 8 C 7.36 g/m*3 8 C 0 km/h
521 28-09-2009 08:10:01 8 C 7.36 g/m*3 8 C 0 km/h
522 28-09-2009 08:22:02 8 C 7.36 g/m*3 8 C 0 km/h
523 28-09-2009 08:34:02 8.1 C 7.41 g/m*3 8.1 C 0 km/h
524 28-09-2009 08:46:02 8.4 C 7.55 g/m*3 8.4 C 0 km/h
525 28-09-2009 08:58:02 8.3 C 7.5 g/m*3 8.3 C 0 km/h
Sensor: Nr:Datum:Temp:Abs-Feuchte:Windchill:Wind:
Aussen-T/F 526 28-09-2009 09:10:03 8.6 C 7.73 g/m*3 8.6 C 0 km/h
527 28-09-2009 09:22:02 8.9 C 7.88 g/m*3 8.9 C 0 km/h
528 28-09-2009 09:34:01 9.4 C 8.05 g/m*3 9.4 C 0 km/h
529 28-09-2009 09:46:02 9.4 C 7.87 g/m*3 9.4 C 0 km/h
530 28-09-2009 09:58:02 9.6 C 7.88 g/m*3 9.6 C 0 km/h
531 28-09-2009 10:10:01 10 C 7.89 g/m*3 10 C 0 km/h
532 28-09-2009 10:22:02 10.4 C 8 g/m*3 10.4 C 0 km/h
533 28-09-2009 10:34:01 10.4 C 7.9 g/m*3 10.4 C 0 km/h
534 28-09-2009 10:46:02 11.2 C 8.21 g/m*3 11.2 C 0 km/h
535 28-09-2009 10:58:02 12.1 C 8.47 g/m*3 12.1 C 0 km/h
536 28-09-2009 11:10:02 12.7 C 8.46 g/m*3 12.7 C 0 km/h
537 28-09-2009 11:22:02 13.5 C 8.54 g/m*3 13.5 C 0 km/h
538 28-09-2009 11:34:03 14.1 C 8.37 g/m*3 14.1 C 0 km/h
539 28-09-2009 11:46:02 14.8 C 8.36 g/m*3 14.8 C 0 km/h
540 28-09-2009 11:58:02 15.8 C 8.21 g/m*3 15.8 C 0 km/h
541 28-09-2009 12:10:01 16.2 C 8 g/m*3 16.2 C 0 km/h
542 28-09-2009 12:22:02 16.4 C 8.23 g/m*3 16.4 C 0 km/h
543 28-09-2009 12:34:02 16.9 C 8.2 g/m*3 16.9 C 0 km/h
544 28-09-2009 12:46:02 17.4 C 8.3 g/m*3 17.4 C 0 km/h
545 28-09-2009 12:58:02 18.1 C 8.19 g/m*3 18.1 C 0 km/h
546 28-09-2009 13:10:02 18.5 C 8.23 g/m*3 18.5 C 0 km/h
547 28-09-2009 13:22:02 18.9 C 8.26 g/m*3 18.9 C 0 km/h
548 28-09-2009 13:34:02 19.2 C 8.08 g/m*3 19.2 C 0 km/h
549 28-09-2009 13:46:01 19.8 C 8.2 g/m*3 19.8 C 0 km/h
550 28-09-2009 13:58:01 20.8 C 8.15 g/m*3 20.8 C 0 km/h
Sensor: Nr:Datum:Temp:Abs-Feuchte:Windchill:Wind:
Aussen-T/F 551 28-09-2009 14:10:02 21.2 C 7.6 g/m*3 21.2 C 0 km/h
552 28-09-2009 14:22:01 21 C 7.69 g/m*3 21 C 0 km/h
553 28-09-2009 14:34:01 20.6 C 7.87 g/m*3 20.6 C 0 km/h
554 28-09-2009 14:46:01 20.6 C 8.23 g/m*3 20.6 C 0 km/h
555 28-09-2009 14:58:01 21.4 C 7.87 g/m*3 21.4 C 0 km/h
556 28-09-2009 15:10:02 22 C 7.57 g/m*3 22 C 0 km/h
557 28-09-2009 15:22:01 22 C 7.76 g/m*3 22 C 0 km/h
558 28-09-2009 15:34:01 21.6 C 7.78 g/m*3 21.6 C 0 km/h
559 28-09-2009 15:46:01 22.5 C 7.99 g/m*3 22.5 C 0 km/h
560 28-09-2009 15:58:01 22.6 C 7.83 g/m*3 22.6 C 0 km/h
561 28-09-2009 16:10:02 22.8 C 7.72 g/m*3 22.8 C 0 km/h
562 28-09-2009 16:22:01 23 C 7.6 g/m*3 23 C 0 km/h
563 28-09-2009 16:34:01 23.5 C 7.61 g/m*3 23.5 C 0 km/h
564 28-09-2009 16:46:01 22.8 C 7.32 g/m*3 22.8 C 0 km/h
565 28-09-2009 16:58:01 22.7 C 8.08 g/m*3 22.7 C 0 km/h
566 28-09-2009 17:10:01 22.5 C 7.99 g/m*3 22.5 C 0 km/h
567 28-09-2009 17:22:02 21.9 C 8.1 g/m*3 21.9 C 0 km/h
568 28-09-2009 17:34:01 22.1 C 7.81 g/m*3 22.1 C 0 km/h
569 28-09-2009 17:46:03 21.9 C 8.1 g/m*3 21.9 C 0 km/h
570 28-09-2009 17:58:03 20.8 C 8.33 g/m*3 20.8 C 0 km/h
571 28-09-2009 18:10:02 19.8 C 8.37 g/m*3 19.8 C 0 km/h
572 28-09-2009 18:22:02 19.2 C 8.41 g/m*3 19.2 C 0 km/h
573 28-09-2009 18:34:02 18.7 C 8.65 g/m*3 18.7 C 0 km/h
574 28-09-2009 18:46:02 18.3 C 8.76 g/m*3 18.3 C 0 km/h
575 28-09-2009 18:58:02 18.1 C 8.81 g/m*3 18.1 C 0 km/h
Sensor: Nr:Datum:Temp:Abs-Feuchte:Windchill:Wind:
Aussen-T/F 576 28-09-2009 19:10:02 17.8 C 8.95 g/m*3 17.8 C 0 km/h
577 28-09-2009 19:22:02 17.3 C 8.84 g/m*3 17.3 C 0 km/h
578 28-09-2009 19:34:01 17 C 8.83 g/m*3 17 C 0 km/h
579 28-09-2009 19:46:02 16.6 C 8.9 g/m*3 16.6 C 0 km/h
580 28-09-2009 19:58:02 16.3 C 8.88 g/m*3 16.3 C 0 km/h
581 28-09-2009 20:10:01 16.1 C 9.05 g/m*3 16.1 C 0 km/h
582 28-09-2009 20:22:02 15.8 C 9.15 g/m*3 15.8 C 0 km/h
583 28-09-2009 20:34:02 15.6 C 9.04 g/m*3 15.6 C 0 km/h
584 28-09-2009 20:46:02 15.6 C 9.18 g/m*3 15.6 C 0 km/h
585 28-09-2009 20:58:02 15.4 C 9.07 g/m*3 15.4 C 0 km/h
586 28-09-2009 21:10:02 15.3 C 9.01 g/m*3 15.3 C 0 km/h
587 28-09-2009 21:22:02 15.3 C 9.01 g/m*3 15.3 C 0 km/h
588 28-09-2009 21:34:02 15.2 C 8.96 g/m*3 15.2 C 0 km/h
589 28-09-2009 21:46:01 15.2 C 8.96 g/m*3 15.2 C 0 km/h
590 28-09-2009 21:58:01 14.8 C 8.99 g/m*3 14.8 C 0 km/h
591 28-09-2009 22:11:02 14.6 C 9.01 g/m*3 14.6 C 0 km/h
592 28-09-2009 22:23:02 14.5 C 8.95 g/m*3 14.5 C 0 km/h
593 28-09-2009 22:35:02 14.5 C 8.95 g/m*3 14.5 C 0 km/h
594 28-09-2009 22:47:02 14 C 8.81 g/m*3 14 C 0 km/h
595 28-09-2009 22:59:02 13.9 C 8.99 g/m*3 13.9 C 0 km/h
596 28-09-2009 23:11:02 14 C 9.17 g/m*3 14 C 0 km/h
597 28-09-2009 23:23:02 14.2 C 9.4 g/m*3 14.2 C 0 km/h
598 28-09-2009 23:35:02 14.5 C 9.33 g/m*3 14.5 C 0 km/h
599 28-09-2009 23:47:02 14.2 C 9.28 g/m*3 14.2 C 0 km/h
600 28-09-2009 23:59:02 14.4 C 9.39 g/m*3 14.4 C 0 km/h

Legende:
   Min
   Max


Maximal/Minimal-Werte vom 24.09.2009 - 28.09.2009

Sensor Min Max Avg
Temp
(Aussen-T/F)
7.8 °C
26-09-2009  06:21:05
26.4 °C
27-09-2009  17:09:01
15.15 °C
Abs-Feuchte
(Aussen-T/F)
5.53 g/m*3
25-09-2009  15:56:02
11.4 g/m*3
24-09-2009  13:55:01
8.4 g/m*3
Windchill
(Aussen-T/F)
7.8 C
26-09-2009  06:21:05
26.4 C
27-09-2009  17:09:01
15.13 C

Die Daten stammen von einer Davis Vantage Pro 2 Wetter-Station und werden unter Linux mit der Software wview2wettercgi und aufbereitet. Alle Angaben erfolgen ohne Gewähr für ihre Vollständigkeit oder Richtigkeit.
Kontakt: Rainer Krienke krienke@uni-koblenz.de . Meine Webseiten an der Uni Koblenz oder privat.
Version: $Revision: 0.78 $